Terminal Aerodrome Forecast
Issued by NWS Sioux Falls, SD

Home | Current Version | Previous Version | Graphics & Text | Print | Product List | Glossary On
Versions: 1 2 3 4 5 6 7 8 9 10 11 12 13
000
FTUS43 KFSD 280520
TAFFSD
TAF
KFSD 280520Z 2806/0106 17013KT P6SM SKC
     FM281500 17014KT P6SM SCT080
     FM281800 18013G19KT P6SM BKN035
     FM010000 18008KT P6SM SCT035 BKN150=

USA.gov is the U.S. government's official web portal to all federal, state and local government web resources and services.